Time;durP1;ratioP1;P1;durP2;ratioP2;P2;SDS_P1;SDS_P2;PMS_P1;PMS_P2;Temp;Humidity;BMP_temperature;BMP_pressure;BME280_temperature;BME280_humidity;BME280_pressure;Samples;Min_cycle;Max_cycle;Signal;HPM_P1;HPM_P2
2023/04/12 00:00:12;;;;;;;7.17;2.10;;;8.90;99.90;;;;;;5006730;28;20199;-89
2023/04/12 00:02:38;;;;;;;4.60;1.90;;;8.90;99.90;;;;;;5009324;28;20203;-87
2023/04/12 00:05:04;;;;;;;5.80;2.03;;;8.80;99.90;;;;;;5006314;28;20187;-88
2023/04/12 00:07:30;;;;;;;6.50;2.07;;;8.80;99.90;;;;;;5004167;28;20182;-89
2023/04/12 00:09:56;;;;;;;13.40;2.90;;;8.80;99.90;;;;;;5003412;28;20461;-87
2023/04/12 00:12:21;;;;;;;3.17;1.90;;;8.90;99.90;;;;;;5000618;28;20182;-89
2023/04/12 00:14:47;;;;;;;5.77;2.00;;;8.90;99.90;;;;;;5003066;28;20554;-89
2023/04/12 00:17:12;;;;;;;18.80;2.87;;;8.80;99.90;;;;;;4998655;28;20567;-88
2023/04/12 00:19:40;;;;;;;9.43;2.37;;;8.80;99.90;;;;;;5001915;28;20202;-88
2023/04/12 00:22:09;;;;;;;6.85;2.10;;;8.80;99.90;;;;;;4999763;28;20208;-88
2023/04/12 00:24:38;;;;;;;5.10;1.70;;;8.70;99.90;;;;;;5015378;28;20344;-88
2023/04/12 00:27:04;;;;;;;3.67;2.00;;;8.60;99.90;;;;;;4998249;28;20182;-87
2023/04/12 00:29:31;;;;;;;3.70;1.92;;;8.60;99.90;;;;;;4996618;28;20542;-88
2023/04/12 00:31:56;;;;;;;3.50;2.03;;;8.50;99.90;;;;;;4998531;28;20190;-88
2023/04/12 00:34:22;;;;;;;5.57;2.20;;;8.50;99.90;;;;;;5012434;28;20186;-86
2023/04/12 00:36:49;;;;;;;2.80;2.00;;;8.40;99.90;;;;;;4995026;28;20852;-85
2023/04/12 00:39:14;;;;;;;3.05;1.42;;;8.40;99.90;;;;;;4999465;28;20706;-86
2023/04/12 00:41:40;;;;;;;6.13;2.07;;;8.30;99.90;;;;;;5017458;28;20211;-85
2023/04/12 00:44:07;;;;;;;3.33;1.87;;;8.20;99.90;;;;;;5002659;28;20265;-86
2023/04/12 00:46:33;;;;;;;12.60;2.50;;;8.00;99.90;;;;;;5000369;28;20178;-88
2023/04/12 00:48:59;;;;;;;4.37;2.20;;;7.90;99.90;;;;;;5000841;28;20194;-88
2023/04/12 00:51:25;;;;;;;4.25;2.60;;;7.90;99.90;;;;;;5015326;28;20186;-88
2023/04/12 00:53:58;;;;;;;6.93;3.70;;;7.90;99.90;;;;;;5005801;28;20178;-86
2023/04/12 00:56:26;;;;;;;4.38;2.10;;;7.80;99.90;;;;;;5020075;28;20177;-87
2023/04/12 00:58:52;;;;;;;2.25;1.85;;;7.70;99.90;;;;;;5002088;28;20189;-87
2023/04/12 01:01:18;;;;;;;4.70;2.00;;;7.70;99.90;;;;;;4998432;28;20202;-87
2023/04/12 01:03:44;;;;;;;8.40;2.77;;;7.60;99.90;;;;;;4996818;28;20468;-87
2023/04/12 01:06:35;;;;;;;6.85;2.90;;;7.50;99.90;;;;;;5011908;28;20228;-88
2023/04/12 01:09:19;;;;;;;2.95;2.00;;;7.50;99.90;;;;;;4999470;28;20799;-88
2023/04/12 01:11:49;;;;;;;8.40;2.78;;;7.50;99.90;;;;;;5000320;28;20183;-87
2023/04/12 01:14:43;;;;;;;7.65;2.72;;;7.50;99.90;;;;;;5013057;28;20202;-87
2023/04/12 01:17:13;;;;;;;5.65;2.50;;;7.40;99.90;;;;;;4999133;28;20179;-88
2023/04/12 01:19:56;;;;;;;7.85;2.78;;;7.40;99.90;;;;;;5004310;28;20214;-88
2023/04/12 01:23:01;;;;;;;4.53;2.30;;;7.40;99.90;;;;;;5014910;28;20203;-88
2023/04/12 01:25:57;;;;;;;5.32;2.58;;;7.40;99.90;;;;;;5017317;28;20183;-88
2023/04/12 01:28:30;;;;;;;5.53;1.88;;;7.40;99.90;;;;;;5002514;28;20182;-88
2023/04/12 01:30:55;;;;;;;5.55;2.65;;;7.30;99.90;;;;;;5001664;28;20231;-88
2023/04/12 01:33:22;;;;;;;3.70;2.30;;;7.30;99.90;;;;;;4998706;28;20217;-88
2023/04/12 01:35:50;;;;;;;11.52;2.75;;;7.30;99.90;;;;;;5003333;28;20206;-89
2023/04/12 01:38:16;;;;;;;7.32;3.47;;;7.30;99.90;;;;;;5001587;28;20293;-87
2023/04/12 01:40:41;;;;;;;9.30;2.47;;;7.20;99.90;;;;;;5004185;28;20312;-88
2023/04/12 01:43:09;;;;;;;3.97;2.10;;;7.20;99.90;;;;;;5014844;28;20206;-88
2023/04/12 01:45:35;;;;;;;13.88;3.05;;;7.10;99.90;;;;;;5001617;28;20460;-89
2023/04/12 01:48:03;;;;;;;4.18;2.30;;;7.10;99.90;;;;;;4999687;28;20208;-88
2023/04/12 01:50:43;;;;;;;4.88;2.30;;;7.10;99.90;;;;;;5000678;28;20595;-87
2023/04/12 01:53:22;;;;;;;9.77;2.80;;;7.10;99.90;;;;;;5003272;28;20198;-88
2023/04/12 01:55:49;;;;;;;6.53;2.88;;;7.20;99.90;;;;;;5003423;28;20186;-88
2023/04/12 01:58:19;;;;;;;10.07;2.38;;;7.20;99.90;;;;;;5001739;28;20658;-86
2023/04/12 02:00:45;;;;;;;8.65;2.38;;;7.20;99.90;;;;;;4999506;28;20227;-88
2023/04/12 02:03:11;;;;;;;13.00;3.53;;;7.30;99.90;;;;;;5002071;28;20234;-89
2023/04/12 02:05:38;;;;;;;3.75;3.00;;;7.30;99.90;;;;;;4999520;28;20496;-88
2023/04/12 02:08:04;;;;;;;4.95;2.70;;;7.20;99.90;;;;;;5001496;28;20802;-87
2023/04/12 02:10:31;;;;;;;4.90;1.65;;;7.20;99.90;;;;;;5004186;28;20281;-88
2023/04/12 02:13:00;;;;;;;6.75;1.50;;;7.20;99.90;;;;;;5003050;28;20578;-87
2023/04/12 02:15:27;;;;;;;5.22;2.05;;;7.10;99.90;;;;;;5005832;28;20189;-87
2023/04/12 02:17:53;;;;;;;6.43;2.10;;;7.10;99.90;;;;;;5022570;28;20206;-88
2023/04/12 02:20:23;;;;;;;9.35;2.50;;;7.10;99.90;;;;;;5002726;28;20214;-88
2023/04/12 02:22:49;;;;;;;6.47;2.95;;;7.00;99.90;;;;;;5007043;28;20794;-88
2023/04/12 02:25:16;;;;;;;4.60;2.57;;;7.00;99.90;;;;;;5001791;28;20189;-87
2023/04/12 02:27:45;;;;;;;6.38;2.70;;;7.00;99.90;;;;;;5005415;28;20181;-88
2023/04/12 02:30:12;;;;;;;2.08;1.48;;;7.00;99.90;;;;;;5018461;28;20587;-88
2023/04/12 02:32:44;;;;;;;5.72;1.88;;;7.00;99.90;;;;;;5004366;28;20190;-88
2023/04/12 02:35:11;;;;;;;8.18;3.35;;;7.10;99.90;;;;;;5009281;28;20187;-88
2023/04/12 02:37:38;;;;;;;4.18;3.50;;;7.10;99.90;;;;;;5009970;28;20773;-88
2023/04/12 02:40:05;;;;;;;4.18;2.67;;;7.10;99.90;;;;;;5005095;28;20268;-87
2023/04/12 02:42:31;;;;;;;5.07;2.75;;;7.10;99.90;;;;;;5004384;28;20206;-88
2023/04/12 02:44:56;;;;;;;6.30;2.50;;;7.00;99.90;;;;;;5003470;28;20677;-88
2023/04/12 02:47:27;;;;;;;2.33;1.40;;;7.10;99.90;;;;;;5003633;28;20499;-87
2023/04/12 02:49:52;;;;;;;4.13;2.30;;;7.10;99.90;;;;;;5018320;28;21178;-87
2023/04/12 02:52:18;;;;;;;3.23;2.23;;;7.10;99.90;;;;;;5004333;28;20197;-88
2023/04/12 02:54:44;;;;;;;3.13;2.43;;;7.10;99.90;;;;;;5003667;28;20186;-88
2023/04/12 02:57:14;;;;;;;12.20;4.10;;;;;;;;;;5009491;28;20176;-88
2023/04/12 02:59:40;;;;;;;5.68;2.83;;;7.10;99.90;;;;;;5004162;28;20222;-89
2023/04/12 03:02:06;;;;;;;5.03;2.03;;;7.10;99.90;;;;;;5004371;28;20238;-89
2023/04/12 03:04:32;;;;;;;4.73;2.37;;;7.10;99.90;;;;;;5005759;28;20175;-88
2023/04/12 03:06:58;;;;;;;6.27;2.00;;;;;;;;;;5006923;28;20187;-88
2023/04/12 03:09:24;;;;;;;6.47;2.63;;;7.00;99.90;;;;;;5008889;28;20825;-88
2023/04/12 03:11:49;;;;;;;6.47;2.83;;;7.00;99.90;;;;;;5005726;28;20433;-87
2023/04/12 03:14:15;;;;;;;7.43;3.37;;;7.10;99.90;;;;;;5003241;28;20438;-87
2023/04/12 03:16:42;;;;;;;6.37;2.33;;;;;;;;;;5002711;28;20189;-88
2023/04/12 03:19:07;;;;;;;5.07;2.70;;;7.00;99.90;;;;;;5021021;28;20422;-89
2023/04/12 03:21:33;;;;;;;9.37;3.80;;;7.00;99.90;;;;;;5002034;28;20198;-90
2023/04/12 03:23:58;;;;;;;9.93;3.30;;;7.00;99.90;;;;;;5003486;28;20304;-89
2023/04/12 03:26:25;;;;;;;8.20;2.93;;;;;;;;;;5018590;28;20253;-90
2023/04/12 03:28:55;;;;;;;8.10;2.33;;;7.10;99.90;;;;;;5019709;28;20229;-90
2023/04/12 03:31:20;;;;;;;7.10;3.38;;;7.10;99.90;;;;;;5018512;28;20661;-88
2023/04/12 03:33:46;;;;;;;4.87;2.63;;;;;;;;;;5020599;28;20266;-89
2023/04/12 03:36:12;;;;;;;6.87;3.73;;;7.20;99.90;;;;;;5014173;28;20189;-89
2023/04/12 03:38:38;;;;;;;9.70;4.50;;;;;;;;;;5007477;28;20520;-89
2023/04/12 03:41:04;;;;;;;11.43;4.07;;;;;;;;;;5007591;28;20202;-89
2023/04/12 03:43:34;;;;;;;6.78;3.78;;;7.20;99.90;;;;;;5022788;28;20465;-89
2023/04/12 03:46:04;;;;;;;10.43;3.97;;;7.10;99.90;;;;;;5023580;28;20171;-89
2023/04/12 03:48:29;;;;;;;5.35;4.38;;;7.10;99.90;;;;;;5007872;28;20171;-88
2023/04/12 03:50:58;;;;;;;6.37;3.63;;;;;;;;;;5003285;28;20203;-89
2023/04/12 03:53:25;;;;;;;4.78;2.75;;;7.10;99.90;;;;;;5019948;28;20441;-90
2023/04/12 03:55:51;;;;;;;8.75;4.82;;;7.10;99.90;;;;;;5019092;28;20280;-89
2023/04/12 03:58:17;;;;;;;6.97;4.97;;;;;;;;;;5008160;28;20174;-89
2023/04/12 04:00:43;;;;;;;7.32;3.25;;;7.20;99.90;;;;;;5020996;28;20229;-90
2023/04/12 04:03:09;;;;;;;3.77;2.83;;;7.10;99.90;;;;;;5004665;28;20866;-89
2023/04/12 04:05:35;;;;;;;6.40;2.93;;;;;;;;;;5016393;28;20739;-87
2023/04/12 04:08:01;;;;;;;5.70;3.30;;;;;;;;;;5020537;28;20517;-87
2023/04/12 04:10:27;;;;;;;2.43;2.17;;;7.10;99.90;;;;;;5021215;28;20909;-88
2023/04/12 04:12:53;;;;;;;9.30;4.50;;;7.10;99.90;;;;;;5003447;28;20813;-89
2023/04/12 04:15:19;;;;;;;7.87;3.83;;;7.10;99.90;;;;;;5013435;28;20189;-89
2023/04/12 04:17:46;;;;;;;7.23;3.70;;;7.10;99.90;;;;;;4999677;28;20433;-88
2023/04/12 04:20:13;;;;;;;4.75;2.85;;;7.10;99.90;;;;;;5000081;28;20575;-87
2023/04/12 04:22:39;;;;;;;15.13;5.20;;;7.10;99.90;;;;;;5002769;28;20281;-89
2023/04/12 04:25:05;;;;;;;18.38;5.25;;;7.10;99.90;;;;;;5004236;28;20171;-89
2023/04/12 04:27:33;;;;;;;9.43;4.53;;;7.20;99.90;;;;;;5002309;28;20187;-87
2023/04/12 04:30:01;;;;;;;3.92;3.53;;;7.20;99.90;;;;;;5003612;28;20210;-86
2023/04/12 04:32:27;;;;;;;6.57;3.83;;;7.10;99.90;;;;;;5001736;28;20642;-88
2023/04/12 04:34:55;;;;;;;10.13;4.35;;;7.20;99.90;;;;;;5000535;28;20202;-88
2023/04/12 04:37:21;;;;;;;8.25;4.13;;;7.10;99.90;;;;;;5000092;28;20642;-88
2023/04/12 04:39:46;;;;;;;7.37;4.70;;;;;;;;;;5002646;28;20272;-89
2023/04/12 04:42:12;;;;;;;13.10;3.53;;;7.20;99.90;;;;;;5001032;28;20211;-89
2023/04/12 04:44:38;;;;;;;7.57;5.17;;;;;;;;;;5014918;28;20446;-90
2023/04/12 04:47:05;;;;;;;9.23;3.67;;;;;;;;;;4998517;28;20183;-87
2023/04/12 04:49:32;;;;;;;6.45;2.85;;;;;;;;;;5000600;28;20475;-88
2023/04/12 04:51:58;;;;;;;8.15;6.70;;;7.20;99.90;;;;;;5000478;28;20182;-89
2023/04/12 04:54:23;;;;;;;5.30;4.00;;;7.10;99.90;;;;;;5011328;28;20199;-88
2023/04/12 04:56:49;;;;;;;6.97;3.83;;;;;;;;;;4998199;28;20773;-89
2023/04/12 04:59:16;;;;;;;8.23;4.75;;;7.10;99.90;;;;;;5013833;28;20250;-89
2023/04/12 05:01:42;;;;;;;8.38;4.82;;;7.10;99.90;;;;;;4997278;28;20188;-89
2023/04/12 05:04:08;;;;;;;6.50;4.63;;;;;;;;;;4995267;28;20182;-89
2023/04/12 05:06:34;;;;;;;7.93;4.33;;;;;;;;;;5007185;28;20577;-89
2023/04/12 05:09:00;;;;;;;7.60;4.55;;;7.10;99.90;;;;;;4995567;28;20499;-88
2023/04/12 05:11:26;;;;;;;9.63;4.82;;;;;;;;;;4996201;28;20281;-90
2023/04/12 05:13:52;;;;;;;9.07;5.15;;;;;;;;;;5009991;28;20286;-88
2023/04/12 05:16:18;;;;;;;9.63;4.35;;;;;;;;;;4994536;28;20706;-90
2023/04/12 05:18:44;;;;;;;5.25;4.60;;;;;;;;;;4996030;28;20242;-90
2023/04/12 05:21:10;;;;;;;8.63;4.97;;;;;;;;;;4997741;28;20242;-88
2023/04/12 05:23:40;;;;;;;6.70;3.63;;;7.10;99.90;;;;;;4999344;28;20230;-89
2023/04/12 05:26:06;;;;;;;4.78;3.67;;;7.10;99.90;;;;;;5009430;28;20489;-91
2023/04/12 05:28:32;;;;;;;11.80;4.53;;;;;;;;;;5007905;28;20186;-86
2023/04/12 05:30:58;;;;;;;7.00;4.10;;;;;;;;;;5002370;28;20198;-89
2023/04/12 05:33:24;;;;;;;6.53;4.33;;;;;;;;;;5017619;28;20427;-89
2023/04/12 05:35:49;;;;;;;4.27;3.47;;;7.20;99.90;;;;;;5003591;28;20433;-87
2023/04/12 05:38:15;;;;;;;16.10;4.27;;;;;;;;;;5002652;28;20445;-90
2023/04/12 05:40:42;;;;;;;3.77;2.87;;;;;;;;;;5004315;28;20203;-89
2023/04/12 05:43:11;;;;;;;6.40;3.33;;;7.20;99.90;;;;;;5012135;28;20461;-86
2023/04/12 05:45:37;;;;;;;4.50;2.50;;;;;;;;;;5011953;28;20186;-87
2023/04/12 05:48:03;;;;;;;5.82;3.10;;;7.20;99.90;;;;;;5022710;28;20548;-89
2023/04/12 05:50:29;;;;;;;7.53;4.43;;;;;;;;;;5017041;28;20219;-87
2023/04/12 05:52:55;;;;;;;3.88;2.47;;;;;;;;;;5025489;28;20796;-85
2023/04/12 05:55:21;;;;;;;4.50;3.45;;;7.20;99.90;;;;;;5016976;28;20198;-86
2023/04/12 05:57:47;;;;;;;4.00;2.93;;;;;;;;;;5017923;28;20174;-85
2023/04/12 06:00:16;;;;;;;5.40;3.37;;;7.20;99.90;;;;;;5031846;28;20206;-86
2023/04/12 06:02:43;;;;;;;6.32;2.50;;;7.30;99.90;;;;;;5014534;28;20449;-86
2023/04/12 06:05:10;;;;;;;3.10;2.20;;;7.30;99.90;;;;;;5024265;28;20175;-86
2023/04/12 06:07:38;;;;;;;5.82;3.63;;;7.40;99.90;;;;;;5024120;28;20190;-85
2023/04/12 06:10:04;;;;;;;4.20;3.05;;;7.40;99.90;;;;;;5019860;28;20198;-86
2023/04/12 06:12:30;;;;;;;2.78;2.53;;;;;;;;;;5023359;28;20274;-86
2023/04/12 06:14:55;;;;;;;5.60;2.95;;;7.40;99.90;;;;;;5022820;28;20258;-86
2023/04/12 06:17:21;;;;;;;7.07;3.60;;;7.40;99.90;;;;;;5020683;28;20642;-88
2023/04/12 06:19:47;;;;;;;5.50;4.23;;;;;;;;;;5015186;28;20198;-86
2023/04/12 06:22:13;;;;;;;8.17;4.30;;;;;;;;;;5023017;28;20206;-86
2023/04/12 06:24:39;;;;;;;3.85;2.63;;;7.40;99.90;;;;;;5021156;28;20429;-88
2023/04/12 06:27:05;;;;;;;3.20;2.90;;;;;;;;;;5015859;28;20229;-85
2023/04/12 06:29:31;;;;;;;3.72;2.55;;;;;;;;;;5020245;28;20590;-86
2023/04/12 06:31:56;;;;;;;5.43;2.50;;;7.50;99.90;;;;;;5029310;28;20186;-88
2023/04/12 06:34:22;;;;;;;3.23;2.10;;;;;;;;;;5017806;28;20516;-87
2023/04/12 06:36:48;;;;;;;4.67;2.83;;;;;;;;;;5031969;28;20540;-88
2023/04/12 06:39:15;;;;;;;8.07;3.27;;;;;;;;;;5035934;28;20862;-87
2023/04/12 06:41:46;;;;;;;3.78;2.85;;;;;;;;;;5020316;28;20426;-87
2023/04/12 06:44:12;;;;;;;5.10;3.78;;;7.60;99.90;;;;;;5021084;28;20598;-89
2023/04/12 06:46:37;;;;;;;9.00;3.83;;;;;;;;;;5026201;28;20213;-86
2023/04/12 06:49:03;;;;;;;8.83;4.50;;;7.70;99.90;;;;;;5030696;28;20182;-86
2023/04/12 06:51:29;;;;;;;5.73;2.93;;;7.70;99.90;;;;;;5020284;28;20474;-87
2023/04/12 06:53:56;;;;;;;8.43;3.83;;;7.60;99.90;;;;;;5021636;28;20635;-87
2023/04/12 06:56:22;;;;;;;7.28;3.47;;;;;;;;;;5024320;28;20174;-87
2023/04/12 06:58:48;;;;;;;5.90;5.00;;;7.70;99.90;;;;;;5021937;28;20204;-87
2023/04/12 07:01:13;;;;;;;5.30;3.47;;;7.70;99.90;;;;;;5023624;28;20433;-87
2023/04/12 07:03:39;;;;;;;8.63;3.13;;;;;;;;;;5022366;28;20206;-86
2023/04/12 07:06:05;;;;;;;6.57;3.10;;;7.90;99.90;;;;;;5023225;28;20167;-86
2023/04/12 07:08:35;;;;;;;5.53;3.83;;;7.90;99.90;;;;;;5021990;28;20725;-86
2023/04/12 07:11:01;;;;;;;3.15;2.67;;;7.90;99.90;;;;;;5017370;28;20441;-87
2023/04/12 07:13:28;;;;;;;4.90;3.13;;;;;;;;;;5017427;28;20238;-87
2023/04/12 07:15:53;;;;;;;4.70;3.45;;;7.90;99.90;;;;;;5020224;28;20175;-87
2023/04/12 07:18:20;;;;;;;2.60;2.23;;;;;;;;;;5019926;28;20177;-87
2023/04/12 07:20:47;;;;;;;4.93;2.25;;;8.00;99.90;;;;;;5018525;28;20213;-87
2023/04/12 07:23:14;;;;;;;3.30;2.90;;;;;;;;;;5019331;28;20273;-86
2023/04/12 07:25:39;;;;;;;3.67;3.00;;;8.10;99.90;;;;;;5018755;28;20221;-86
2023/04/12 07:28:05;;;;;;;3.27;2.70;;;;;;;;;;5019530;28;20638;-86
2023/04/12 07:30:31;;;;;;;5.50;3.33;;;;;;;;;;5017613;28;20209;-86
2023/04/12 07:32:59;;;;;;;5.05;2.45;;;;;;;;;;5018308;28;20420;-86
2023/04/12 07:35:25;;;;;;;5.40;2.50;;;8.30;99.90;;;;;;5018891;28;20166;-86
2023/04/12 07:37:52;;;;;;;5.60;3.40;;;8.30;99.90;;;;;;5016641;28;20257;-86
2023/04/12 07:40:18;;;;;;;4.10;2.55;;;;;;;;;;5017291;28;20218;-87
2023/04/12 07:42:43;;;;;;;5.50;3.37;;;8.30;99.90;;;;;;5018132;28;20198;-87
2023/04/12 07:45:09;;;;;;;3.67;2.57;;;8.30;99.90;;;;;;5018211;28;20425;-87
2023/04/12 07:47:35;;;;;;;4.80;3.63;;;;;;;;;;5019629;28;20182;-86
2023/04/12 07:50:02;;;;;;;9.52;3.65;;;8.40;99.90;;;;;;5018864;28;20261;-86
2023/04/12 07:52:28;;;;;;;5.93;3.45;;;;;;;;;;5021534;28;20173;-86
2023/04/12 07:54:54;;;;;;;2.37;2.07;;;;;;;;;;5019759;28;20171;-86
2023/04/12 07:57:20;;;;;;;5.43;2.83;;;;;;;;;;5019100;28;20927;-86
2023/04/12 07:59:46;;;;;;;5.93;3.90;;;8.60;99.90;;;;;;5020191;28;20473;-86
2023/04/12 08:02:12;;;;;;;6.47;3.77;;;;;;;;;;5019635;28;20253;-86
2023/04/12 08:04:38;;;;;;;7.23;4.07;;;;;;;;;;5020054;28;20515;-85
2023/04/12 08:07:04;;;;;;;8.45;4.88;;;;;;;;;;5020314;28;20436;-86
2023/04/12 08:09:30;;;;;;;5.90;3.42;;;;;;;;;;5020231;28;20198;-86
2023/04/12 08:11:57;;;;;;;6.53;2.07;;;;;;;;;;5020686;28;20188;-86
2023/04/12 08:14:22;;;;;;;3.65;2.53;;;;;;;;;;5020090;28;20413;-86
2023/04/12 08:16:48;;;;;;;9.30;2.77;;;9.10;99.90;;;;;;5019524;28;20171;-86
2023/04/12 08:19:14;;;;;;;6.63;2.27;;;9.20;99.90;;;;;;5019609;28;20418;-86
2023/04/12 08:21:39;;;;;;;3.47;2.63;;;9.20;99.90;;;;;;5020529;28;20642;-86
2023/04/12 08:24:05;;;;;;;4.03;2.90;;;9.10;99.90;;;;;;5019729;28;20170;-86
2023/04/12 08:26:31;;;;;;;6.23;3.37;;;;;;;;;;5021828;28;20189;-85
2023/04/12 08:28:57;;;;;;;6.65;2.70;;;;;;;;;;5021972;28;20441;-86
2023/04/12 08:31:23;;;;;;;5.95;3.10;;;;;;;;;;5019100;28;20182;-86
2023/04/12 08:33:49;;;;;;;6.65;3.35;;;;;;;;;;5019881;28;20191;-86
2023/04/12 08:36:15;;;;;;;5.60;3.43;;;;;;;;;;5019783;28;20289;-86
2023/04/12 08:38:41;;;;;;;2.73;2.47;;;;;;;;;;5021027;28;20437;-87
2023/04/12 08:41:08;;;;;;;4.30;3.23;;;9.60;99.90;;;;;;5020459;28;20524;-86
2023/04/12 08:43:34;;;;;;;4.68;2.45;;;;;;;;;;5021379;28;20453;-86
2023/04/12 08:46:00;;;;;;;8.57;3.45;;;;;;;;;;5020017;28;20189;-86
2023/04/12 08:48:27;;;;;;;13.35;2.65;;;9.70;99.90;;;;;;5019209;28;20189;-86
2023/04/12 08:50:56;;;;;;;9.13;5.28;;;9.70;99.90;;;;;;5019527;28;20294;-87
2023/04/12 08:53:22;;;;;;;5.80;3.45;;;9.70;99.90;;;;;;5020946;28;20178;-86
2023/04/12 08:55:48;;;;;;;4.40;3.00;;;9.90;99.90;;;;;;5019172;28;20443;-86
2023/04/12 08:58:14;;;;;;;6.87;4.77;;;10.10;99.90;;;;;;5021703;28;20726;-86
2023/04/12 09:00:41;;;;;;;6.50;2.83;;;10.10;99.90;;;;;;5023974;28;20205;-86
2023/04/12 09:03:09;;;;;;;2.88;1.95;;;10.10;99.90;;;;;;5023621;28;20210;-86
2023/04/12 09:05:35;;;;;;;3.78;2.72;;;;;;;;;;5024685;28;20170;-86
2023/04/12 09:08:01;;;;;;;3.15;1.73;;;;;;;;;;5022449;28;20189;-86
2023/04/12 09:10:44;;;;;;;2.70;2.50;;;10.00;99.90;;;;;;5024186;28;20190;-86
2023/04/12 09:13:10;;;;;;;3.90;2.15;;;;;;;;;;5024212;28;20159;-86
2023/04/12 09:15:50;;;;;;;3.23;2.70;;;9.90;99.90;;;;;;5023602;28;20699;-86
2023/04/12 09:18:15;;;;;;;2.78;2.15;;;10.00;99.90;;;;;;5021942;28;20421;-86
2023/04/12 09:20:41;;;;;;;3.90;2.00;;;;;;;;;;5022675;28;20202;-86
2023/04/12 09:23:18;;;;;;;4.13;2.97;;;10.00;99.90;;;;;;5024462;28;20194;-86
2023/04/12 09:25:46;;;;;;;5.32;2.08;;;;;;;;;;5023907;28;20413;-86
2023/04/12 09:28:26;;;;;;;10.68;3.10;;;10.20;99.90;;;;;;5023345;28;20163;-86
2023/04/12 09:30:53;;;;;;;5.20;2.38;;;10.20;99.90;;;;;;5022127;28;20198;-85
2023/04/12 09:33:38;;;;;;;2.88;2.08;;;10.30;99.90;;;;;;5021367;28;20261;-86
2023/04/12 09:36:08;;;;;;;6.53;2.58;;;10.30;99.90;;;;;;5020045;28;20240;-85
2023/04/12 09:38:38;;;;;;;5.95;4.03;;;;;;;;;;5000434;28;20571;-86
2023/04/12 09:41:24;;;;;;;2.72;2.13;;;10.50;99.90;;;;;;5017160;28;20207;-86
2023/04/12 09:43:50;;;;;;;18.40;8.00;;;;;;;;;;5001737;28;20620;-84
2023/04/12 09:46:16;;;;;;;6.37;4.20;;;10.70;99.90;;;;;;5000146;28;20189;-84
2023/04/12 09:48:49;;;;;;;9.53;3.10;;;11.00;99.90;;;;;;5003561;28;20432;-85
2023/04/12 09:51:25;;;;;;;4.25;2.20;;;11.30;99.90;;;;;;5002005;28;20294;-85
2023/04/12 09:53:52;;;;;;;8.30;4.22;;;11.40;99.90;;;;;;5016917;28;20301;-85
2023/04/12 09:56:21;;;;;;;6.93;4.57;;;11.30;99.90;;;;;;5019311;28;20328;-85
2023/04/12 09:58:52;;;;;;;5.65;3.10;;;11.40;99.90;;;;;;4998051;28;20720;-87
2023/04/12 10:01:21;;;;;;;4.40;3.03;;;11.40;99.90;;;;;;4999260;28;20209;-85
2023/04/12 10:03:47;;;;;;;5.72;2.22;;;11.60;99.90;;;;;;4999947;28;20209;-85
2023/04/12 10:06:14;;;;;;;2.87;1.77;;;;;;;;;;4999084;28;20171;-86
2023/04/12 10:08:40;;;;;;;3.50;1.70;;;;;;;;;;5000118;28;20423;-85
2023/04/12 10:11:06;;;;;;;2.57;2.10;;;12.20;99.90;;;;;;5006567;28;20320;-84
2023/04/12 10:13:32;;;;;;;5.07;2.27;;;12.60;99.90;;;;;;5005380;28;20528;-86
2023/04/12 10:15:59;;;;;;;14.60;6.55;;;12.70;99.90;;;;;;5001144;28;20868;-82
2023/04/12 10:18:26;;;;;;;7.07;1.88;;;12.90;99.90;;;;;;5005129;28;20216;-83
2023/04/12 10:20:52;;;;;;;3.08;2.55;;;12.80;99.90;;;;;;5001303;28;20202;-83
2023/04/12 10:23:18;;;;;;;3.33;2.43;;;12.70;99.90;;;;;;4999150;28;20206;-83
2023/04/12 10:25:46;;;;;;;8.23;2.00;;;13.10;99.90;;;;;;5002601;28;20422;-84
2023/04/12 10:28:17;;;;;;;5.43;2.25;;;13.20;99.90;;;;;;5001808;28;20937;-82
2023/04/12 10:30:46;;;;;;;6.88;2.08;;;13.20;99.90;;;;;;5001816;28;20199;-83
2023/04/12 10:33:13;;;;;;;6.38;2.88;;;13.10;99.90;;;;;;5002534;28;20187;-84
2023/04/12 10:36:09;;;;;;;5.15;2.47;;;13.20;99.90;;;;;;5002820;28;20660;-82
2023/04/12 10:38:46;;;;;;;4.00;2.00;;;12.80;99.90;;;;;;5002162;28;20198;-83
2023/04/12 10:41:20;;;;;;;5.15;1.50;;;13.10;99.90;;;;;;5002130;28;20300;-83
2023/04/12 10:43:47;;;;;;;6.93;2.35;;;13.40;99.90;;;;;;4999006;28;20695;-83
2023/04/12 10:46:44;;;;;;;3.08;1.85;;;13.60;99.90;;;;;;5003897;28;20190;-83
2023/04/12 10:49:10;;;;;;;4.20;2.10;;;;;;;;;;4986876;28;20194;-82
2023/04/12 10:51:36;;;;;;;3.77;2.07;;;;;;;;;;4999515;28;20438;-83
2023/04/12 10:54:14;;;;;;;2.73;2.07;;;13.80;99.90;;;;;;5018826;28;20427;-83
2023/04/12 10:56:40;;;;;;;2.40;1.83;;;;;;;;;;5016968;28;20432;-82
2023/04/12 10:59:10;;;;;;;3.17;1.93;;;13.50;99.90;;;;;;5004237;28;20182;-84
2023/04/12 11:01:37;;;;;;;1.38;1.27;;;13.50;99.90;;;;;;5016247;28;20430;-84
2023/04/12 11:04:11;;;;;;;1.83;1.70;;;13.50;99.90;;;;;;4997268;28;20214;-84
2023/04/12 11:06:58;;;;;;;1.50;1.17;;;13.80;99.90;;;;;;5000582;28;20174;-83
2023/04/12 11:09:32;;;;;;;7.00;2.50;;;14.10;99.90;;;;;;4997897;28;20206;-82
2023/04/12 11:12:13;;;;;;;3.03;1.53;;;14.00;99.90;;;;;;4995361;28;20459;-83
2023/04/12 11:14:50;;;;;;;5.15;1.40;;;14.10;99.90;;;;;;4998105;28;20430;-82
2023/04/12 11:17:16;;;;;;;4.43;1.70;;;;;;;;;;4999499;28;20249;-83
2023/04/12 11:19:49;;;;;;;2.43;1.43;;;14.00;99.90;;;;;;4997277;28;20477;-82
2023/04/12 11:22:18;;;;;;;1.33;1.05;;;13.90;99.90;;;;;;5001134;28;20464;-82
2023/04/12 11:24:46;;;;;;;3.40;1.70;;;13.70;99.90;;;;;;5001370;28;20261;-82
2023/04/12 11:27:13;;;;;;;5.90;1.90;;;14.20;99.90;;;;;;5000004;28;20430;-84
2023/04/12 11:29:39;;;;;;;2.03;1.37;;;;;;;;;;5001626;28;20473;-83
2023/04/12 11:32:08;;;;;;;2.10;1.40;;;13.50;99.90;;;;;;5000800;28;20434;-83
2023/04/12 11:34:35;;;;;;;4.33;1.20;;;13.90;99.90;;;;;;5000920;28;20425;-84
2023/04/12 11:37:04;;;;;;;1.90;1.27;;;14.10;99.90;;;;;;4999398;28;20536;-83
2023/04/12 11:39:30;;;;;;;1.50;1.20;;;;;;;;;;4997920;28;20484;-84
2023/04/12 11:41:56;;;;;;;4.23;1.97;;;;;;;;;;4998917;28;20425;-83
2023/04/12 11:44:22;;;;;;;4.67;1.80;;;;;;;;;;5009301;28;20409;-84
2023/04/12 11:46:49;;;;;;;2.20;1.13;;;;;;;;;;5020525;28;20418;-84
2023/04/12 11:49:19;;;;;;;1.53;1.20;;;15.00;99.90;;;;;;5018116;28;20433;-84
2023/04/12 11:51:45;;;;;;;3.50;1.63;;;15.10;99.90;;;;;;5012534;28;20986;-85
2023/04/12 11:54:12;;;;;;;1.87;1.10;;;15.00;99.90;;;;;;5009914;28;20461;-84
2023/04/12 11:56:38;;;;;;;3.20;1.23;;;;;;;;;;5006400;28;20214;-84
2023/04/12 11:59:04;;;;;;;4.30;1.80;;;;;;;;;;5010069;28;20430;-84
2023/04/12 12:01:31;;;;;;;2.50;1.00;;;;;;;;;;5009306;28;20425;-84
2023/04/12 12:03:58;;;;;;;2.53;1.10;;;14.70;99.90;;;;;;5009587;28;20457;-84
2023/04/12 12:06:24;;;;;;;3.30;2.20;;;14.90;99.90;;;;;;5004530;28;20430;-83
2023/04/12 12:08:50;;;;;;;2.20;2.00;;;;;;;;;;5012403;28;20448;-84
2023/04/12 12:11:18;;;;;;;4.40;1.53;;;14.50;99.90;;;;;;5007427;28;21043;-83
2023/04/12 12:13:48;;;;;;;1.43;0.97;;;14.30;99.90;;;;;;5007224;28;20433;-83
2023/04/12 12:16:15;;;;;;;1.30;0.73;;;14.00;99.90;;;;;;5009988;28;20425;-83
2023/04/12 12:18:42;;;;;;;2.63;1.90;;;14.00;99.90;;;;;;5008953;28;20854;-84
2023/04/12 12:21:08;;;;;;;2.10;0.80;;;14.10;99.90;;;;;;5008606;28;20443;-84
2023/04/12 12:23:34;;;;;;;4.40;1.07;;;14.30;99.90;;;;;;5002639;28;20991;-84
2023/04/12 12:26:05;;;;;;;1.63;1.47;;;14.10;99.90;;;;;;5002503;28;20434;-84
2023/04/12 12:28:38;;;;;;;2.03;0.77;;;14.30;99.90;;;;;;5011845;28;20423;-85
2023/04/12 12:31:10;;;;;;;1.00;0.83;;;14.70;99.90;;;;;;5011221;28;20466;-84
2023/04/12 12:33:39;;;;;;;4.00;1.87;;;15.20;99.90;;;;;;5000404;28;20461;-85
2023/04/12 12:36:06;;;;;;;1.50;1.20;;;15.20;99.90;;;;;;5023774;28;20432;-84
2023/04/12 12:38:37;;;;;;;2.67;1.13;;;15.40;99.90;;;;;;5011004;28;20557;-83
2023/04/12 12:41:23;;;;;;;3.03;1.00;;;15.50;99.90;;;;;;5006747;28;20502;-83
2023/04/12 12:43:52;;;;;;;1.33;0.90;;;16.30;99.90;;;;;;5006385;28;20469;-84
2023/04/12 12:46:19;;;;;;;1.17;0.67;;;16.30;99.90;;;;;;5016576;28;20950;-84
2023/04/12 12:48:45;;;;;;;1.50;0.60;;;16.40;99.90;;;;;;5020912;28;20421;-84
2023/04/12 12:51:12;;;;;;;3.20;1.03;;;16.50;99.90;;;;;;5020901;28;21090;-84
2023/04/12 12:53:39;;;;;;;1.97;0.80;;;16.60;99.90;;;;;;5038194;28;20534;-84
2023/04/12 12:56:09;;;;;;;3.17;1.10;;;17.20;99.90;;;;;;5021134;28;20424;-84
2023/04/12 12:58:36;;;;;;;1.83;0.90;;;16.70;99.90;;;;;;5019064;28;20436;-84
2023/04/12 13:01:03;;;;;;;2.00;0.63;;;;;;;;;;5018156;28;20458;-84
2023/04/12 13:03:29;;;;;;;1.20;0.73;;;;;;;;;;5017340;28;20461;-84
2023/04/12 13:05:55;;;;;;;1.70;1.17;;;17.20;99.90;;;;;;5011498;28;20422;-84
2023/04/12 13:08:21;;;;;;;1.83;0.87;;;;;;;;;;5009698;28;20488;-84
2023/04/12 13:10:47;;;;;;;2.63;1.10;;;16.40;99.90;;;;;;5011180;28;21040;-85
2023/04/12 13:13:13;;;;;;;2.47;1.10;;;16.30;99.90;;;;;;5010576;28;20433;-82
2023/04/12 13:15:39;;;;;;;4.50;0.70;;;;;;;;;;5005330;28;20186;-82
2023/04/12 13:18:04;;;;;;;1.57;0.60;;;16.30;99.90;;;;;;5006220;28;20187;-82
2023/04/12 13:20:30;;;;;;;2.60;0.73;;;16.20;99.90;;;;;;5004028;28;20548;-81
2023/04/12 13:22:56;;;;;;;1.20;1.00;;;15.80;99.90;;;;;;5006311;28;20263;-82
2023/04/12 13:25:21;;;;;;;0.60;0.50;;;15.60;99.90;;;;;;5004292;28;20209;-82